Time;durP1;ratioP1;P1;durP2;ratioP2;P2;SDS_P1;SDS_P2;PMS_P1;PMS_P2;Temp;Humidity;BMP_temperature;BMP_pressure;BME280_temperature;BME280_humidity;BME280_pressure;Samples;Min_cycle;Max_cycle;Signal;HPM_P1;HPM_P2
2022/11/06 00:01:20;;;;;;;6.40;1.80;;;10.00;99.90;;;;;;5095124;28;20293;-86
2022/11/06 00:03:53;;;;;;;4.33;1.50;;;9.90;99.90;;;;;;5106059;28;20774;-87
2022/11/06 00:09:14;;;;;;;3.30;1.20;;;9.80;99.90;;;;;;5108384;28;20275;-88
2022/11/06 00:11:48;;;;;;;4.67;1.73;;;9.70;99.90;;;;;;5106441;28;20230;-89
2022/11/06 00:14:19;;;;;;;4.40;1.93;;;9.60;99.90;;;;;;5114699;28;20261;-90
2022/11/06 00:16:53;;;;;;;3.80;1.70;;;9.40;99.90;;;;;;5108507;28;20234;-89
2022/11/06 00:19:25;;;;;;;3.30;1.50;;;9.20;99.90;;;;;;5111089;28;20232;-90
2022/11/06 00:21:56;;;;;;;4.10;1.40;;;9.00;99.90;;;;;;5114338;28;20227;-90
2022/11/06 00:24:28;;;;;;;5.57;1.90;;;8.80;99.90;;;;;;5109426;28;20313;-90
2022/11/06 00:27:02;;;;;;;4.93;2.03;;;8.50;99.90;;;;;;5096069;28;20203;-90
2022/11/06 00:29:33;;;;;;;7.07;2.33;;;8.40;99.90;;;;;;5106079;28;20230;-89
2022/11/06 00:32:07;;;;;;;5.63;1.73;;;8.20;99.90;;;;;;5114065;28;20293;-91
2022/11/06 00:34:38;;;;;;;4.97;1.63;;;8.10;99.90;;;;;;5115395;28;20213;-90
2022/11/06 00:37:10;;;;;;;6.13;2.43;;;8.10;99.90;;;;;;5097486;28;20249;-90
2022/11/06 00:39:41;;;;;;;6.63;2.03;;;8.00;99.90;;;;;;5101758;28;20241;-89
2022/11/06 00:42:14;;;;;;;5.30;1.90;;;7.90;99.90;;;;;;5094498;28;20226;-88
2022/11/06 00:44:45;;;;;;;6.77;1.93;;;7.80;99.90;;;;;;5096388;28;20590;-89
2022/11/06 00:47:16;;;;;;;5.03;1.87;;;7.80;99.90;;;;;;5103504;28;20629;-90
2022/11/06 00:49:48;;;;;;;4.13;1.53;;;7.70;99.90;;;;;;5099035;28;20251;-88
2022/11/06 00:52:21;;;;;;;7.30;2.00;;;7.60;99.90;;;;;;5093047;28;20211;-88
2022/11/06 00:54:52;;;;;;;6.73;1.90;;;7.50;99.90;;;;;;5094847;28;20227;-88
2022/11/06 00:57:25;;;;;;;3.87;1.93;;;7.40;99.90;;;;;;5107522;28;20294;-88
2022/11/06 00:59:56;;;;;;;5.00;2.10;;;7.40;99.90;;;;;;5114653;28;20206;-87
2022/11/06 01:02:27;;;;;;;7.80;2.20;;;7.40;99.90;;;;;;5101225;28;20205;-90
2022/11/06 01:05:01;;;;;;;5.00;2.07;;;7.30;99.90;;;;;;5111377;28;20230;-87
2022/11/06 01:07:32;;;;;;;6.43;2.37;;;7.30;99.90;;;;;;5096703;28;20794;-89
2022/11/06 01:10:04;;;;;;;5.17;2.20;;;7.20;99.90;;;;;;5096445;28;20536;-87
2022/11/06 01:12:37;;;;;;;5.33;1.90;;;7.20;99.90;;;;;;5112510;28;20237;-88
2022/11/06 01:15:09;;;;;;;6.90;2.53;;;7.20;99.90;;;;;;5112271;28;20296;-88
2022/11/06 01:17:40;;;;;;;8.07;2.43;;;7.20;99.90;;;;;;5113541;28;20233;-87
2022/11/06 01:20:12;;;;;;;8.27;3.03;;;7.10;99.90;;;;;;5113726;28;20321;-87
2022/11/06 01:22:44;;;;;;;8.43;2.87;;;7.10;99.90;;;;;;5112881;28;20210;-88
2022/11/06 01:25:15;;;;;;;5.50;3.03;;;7.10;99.90;;;;;;5116335;28;20218;-87
2022/11/06 01:27:48;;;;;;;6.20;3.33;;;7.10;99.90;;;;;;5104429;28;20285;-89
2022/11/06 01:30:20;;;;;;;9.30;3.17;;;7.10;99.90;;;;;;5105347;28;20278;-87
2022/11/06 01:32:51;;;;;;;7.10;2.40;;;7.00;99.90;;;;;;5112853;28;20285;-88
2022/11/06 01:35:22;;;;;;;7.60;2.47;;;7.00;99.90;;;;;;5112996;28;20202;-88
2022/11/06 01:37:53;;;;;;;5.97;2.27;;;6.90;99.90;;;;;;5112958;28;20302;-88
2022/11/06 01:40:24;;;;;;;6.60;2.40;;;6.90;99.90;;;;;;5114220;28;20213;-88
2022/11/06 01:42:58;;;;;;;7.23;2.47;;;6.80;99.90;;;;;;5112262;28;20289;-87
2022/11/06 01:45:36;;;;;;;6.33;2.47;;;6.80;99.90;;;;;;5113902;28;20324;-88
2022/11/06 01:48:08;;;;;;;5.87;2.47;;;6.80;99.90;;;;;;5113205;28;20224;-87
2022/11/06 01:50:42;;;;;;;5.70;2.07;;;6.70;99.90;;;;;;5113524;28;20206;-88
2022/11/06 01:53:15;;;;;;;6.83;2.07;;;6.70;99.90;;;;;;5123007;28;20208;-88
2022/11/06 01:55:51;;;;;;;7.30;1.93;;;6.70;99.90;;;;;;5128856;28;20232;-90
2022/11/06 01:58:29;;;;;;;8.03;2.33;;;6.60;99.90;;;;;;5120356;28;20301;-93
2022/11/06 02:01:03;;;;;;;7.63;2.00;;;6.70;99.90;;;;;;5112892;28;20316;-90
2022/11/06 02:03:34;;;;;;;3.30;1.60;;;6.80;99.90;;;;;;5105451;28;20230;-91
2022/11/06 02:06:07;;;;;;;4.20;1.77;;;6.80;99.90;;;;;;5106553;28;20257;-91
2022/11/06 02:08:39;;;;;;;4.03;1.50;;;6.90;99.90;;;;;;5109081;28;20274;-88
2022/11/06 02:11:11;;;;;;;6.07;1.70;;;7.00;99.90;;;;;;5113047;28;20209;-86
2022/11/06 02:13:54;;;;;;;8.30;2.07;;;7.00;99.90;;;;;;5080956;28;20254;-87
2022/11/06 02:16:35;;;;;;;5.90;1.57;;;7.00;99.90;;;;;;5100750;28;20231;-88
2022/11/06 02:19:36;;;;;;;5.53;1.60;;;7.00;99.90;;;;;;5103587;28;20205;-89
2022/11/06 02:22:29;;;;;;;4.97;1.97;;;7.00;99.90;;;;;;5091983;28;20282;-91
2022/11/06 02:25:15;;;;;;;4.20;1.73;;;7.00;99.90;;;;;;5104350;28;20218;-90
2022/11/06 02:27:52;;;;;;;7.33;1.83;;;7.00;99.90;;;;;;5103394;28;20198;-89
2022/11/06 02:30:25;;;;;;;7.10;1.77;;;6.90;99.90;;;;;;5112127;28;20245;-89
2022/11/06 02:32:59;;;;;;;6.27;1.80;;;6.90;99.90;;;;;;5102667;28;20269;-88
2022/11/06 02:35:33;;;;;;;5.10;2.27;;;6.80;99.90;;;;;;5109006;28;20293;-88
2022/11/06 02:38:08;;;;;;;9.30;1.83;;;6.80;99.90;;;;;;5113774;28;20286;-90
2022/11/06 02:40:44;;;;;;;10.50;2.23;;;6.80;99.90;;;;;;5105280;28;20696;-89
2022/11/06 02:43:19;;;;;;;6.93;2.13;;;6.80;99.90;;;;;;5115535;28;20289;-88
2022/11/06 02:45:55;;;;;;;8.93;2.03;;;6.70;99.90;;;;;;5104761;28;20217;-90
2022/11/06 02:48:32;;;;;;;9.17;1.70;;;6.70;99.90;;;;;;5099506;28;20206;-91
2022/11/06 02:51:07;;;;;;;7.53;2.23;;;6.60;99.90;;;;;;5102865;28;20226;-89
2022/11/06 02:53:41;;;;;;;8.50;1.90;;;6.60;99.90;;;;;;5092040;28;20225;-91
2022/11/06 02:56:16;;;;;;;9.40;2.03;;;6.60;99.90;;;;;;5113589;28;20257;-88
2022/11/06 02:58:54;;;;;;;11.83;1.90;;;6.50;99.90;;;;;;5102051;28;20207;-89
2022/11/06 03:01:30;;;;;;;5.50;1.80;;;6.50;99.90;;;;;;5112539;28;20195;-92
2022/11/06 03:04:07;;;;;;;8.80;1.53;;;6.50;99.90;;;;;;5123119;28;20230;-88
2022/11/06 03:06:43;;;;;;;5.90;1.80;;;6.50;99.90;;;;;;5106985;28;20746;-89
2022/11/06 03:09:17;;;;;;;7.10;1.70;;;6.50;99.90;;;;;;5109940;28;20202;-89
2022/11/06 03:11:53;;;;;;;6.87;1.63;;;6.40;99.90;;;;;;5116372;28;20241;-93
2022/11/06 03:14:33;;;;;;;9.17;2.13;;;6.40;99.90;;;;;;5123589;28;20185;-91
2022/11/06 03:17:13;;;;;;;9.63;1.77;;;6.30;99.90;;;;;;5124293;28;20195;-92
2022/11/06 03:19:50;;;;;;;6.23;1.70;;;6.30;99.90;;;;;;5120905;28;20233;-92
2022/11/06 03:22:30;;;;;;;5.10;1.43;;;6.30;99.90;;;;;;5126001;28;20187;-91
2022/11/06 03:25:09;;;;;;;5.60;1.60;;;6.30;99.90;;;;;;5106820;28;20798;-92
2022/11/06 03:27:45;;;;;;;10.33;1.80;;;6.30;99.90;;;;;;5102750;28;20261;-89
2022/11/06 03:30:19;;;;;;;6.83;1.50;;;6.30;99.90;;;;;;5106980;28;20203;-88
2022/11/06 03:32:54;;;;;;;5.97;1.40;;;6.30;99.90;;;;;;5116111;28;20293;-89
2022/11/06 03:35:31;;;;;;;7.97;1.53;;;6.30;99.90;;;;;;5099474;28;20222;-88
2022/11/06 03:38:06;;;;;;;8.53;1.70;;;6.20;99.90;;;;;;5115802;28;20202;-89
2022/11/06 03:40:44;;;;;;;7.73;1.60;;;6.20;99.90;;;;;;5106633;28;20206;-91
2022/11/06 03:43:19;;;;;;;4.20;1.47;;;6.30;99.90;;;;;;5101623;28;20278;-91
2022/11/06 03:45:54;;;;;;;7.77;1.90;;;6.20;99.90;;;;;;5093472;28;20234;-92
2022/11/06 03:48:31;;;;;;;5.40;1.57;;;6.20;99.90;;;;;;5105551;28;20280;-89
2022/11/06 03:51:08;;;;;;;5.13;1.40;;;6.20;99.90;;;;;;5089900;28;20285;-89
2022/11/06 03:53:47;;;;;;;4.67;1.30;;;6.20;99.90;;;;;;5109101;28;20678;-88
2022/11/06 03:56:21;;;;;;;5.43;1.50;;;6.10;99.90;;;;;;5105482;28;20313;-89
2022/11/06 03:58:53;;;;;;;6.90;1.47;;;6.10;99.90;;;;;;5105432;28;20745;-88
2022/11/06 04:01:33;;;;;;;8.93;1.90;;;6.10;99.90;;;;;;5094139;28;20222;-88
2022/11/06 04:04:10;;;;;;;7.43;1.53;;;6.10;99.90;;;;;;5113614;28;20208;-88
2022/11/06 04:06:48;;;;;;;8.63;1.63;;;6.10;99.90;;;;;;5123669;28;20264;-89
2022/11/06 04:15:18;;;;;;;7.53;1.60;;;6.00;99.90;;;;;;5060357;28;20291;-87
2022/11/06 04:17:53;;;;;;;9.73;1.93;;;6.00;99.90;;;;;;5053175;28;20669;-89
2022/11/06 04:23:27;;;;;;;8.33;1.60;;;5.90;99.90;;;;;;5093146;28;20207;-89
2022/11/06 04:29:00;;;;;;;9.13;1.63;;;5.90;99.90;;;;;;5110162;28;20210;-87
2022/11/06 04:31:38;;;;;;;4.57;1.63;;;5.90;99.90;;;;;;5104735;28;20232;-87
2022/11/06 04:34:18;;;;;;;4.57;1.70;;;5.90;99.90;;;;;;5108530;28;20202;-86
2022/11/06 04:36:55;;;;;;;7.97;1.73;;;5.90;99.90;;;;;;5096802;28;20274;-89
2022/11/06 04:39:36;;;;;;;9.20;1.87;;;5.90;99.90;;;;;;5098418;28;20207;-86
2022/11/06 04:42:12;;;;;;;8.00;2.07;;;5.90;99.90;;;;;;5112970;28;20194;-88
2022/11/06 04:44:47;;;;;;;7.33;2.10;;;5.90;99.90;;;;;;5093613;28;20714;-87
2022/11/06 04:47:21;;;;;;;5.60;1.70;;;5.90;99.90;;;;;;5092345;28;20226;-88
2022/11/06 04:49:59;;;;;;;7.03;2.47;;;5.90;99.90;;;;;;5109978;28;20214;-87
2022/11/06 04:52:31;;;;;;;12.10;2.37;;;5.90;99.90;;;;;;5104025;28;20237;-88
2022/11/06 04:55:03;;;;;;;6.60;1.70;;;5.90;99.90;;;;;;5116013;28;20229;-89
2022/11/06 04:57:35;;;;;;;9.27;1.87;;;5.90;99.90;;;;;;5113137;28;20236;-87
2022/11/06 05:00:07;;;;;;;8.07;1.70;;;5.90;99.90;;;;;;5088977;28;20203;-86
2022/11/06 05:02:39;;;;;;;8.60;2.27;;;6.00;99.90;;;;;;5110437;28;20212;-88
2022/11/06 05:05:13;;;;;;;7.63;1.50;;;5.90;99.90;;;;;;5094231;28;20605;-86
2022/11/06 05:07:45;;;;;;;6.67;1.90;;;5.90;99.90;;;;;;5097089;28;20745;-88
2022/11/06 05:10:16;;;;;;;11.23;1.93;;;6.00;99.90;;;;;;5098069;28;20278;-87
2022/11/06 05:12:49;;;;;;;10.87;2.50;;;6.00;99.90;;;;;;5103592;28;20309;-89
2022/11/06 05:15:21;;;;;;;6.33;1.87;;;5.90;99.90;;;;;;5114867;28;20206;-86
2022/11/06 05:17:53;;;;;;;6.57;1.80;;;6.00;99.90;;;;;;5098030;28;20710;-88
2022/11/06 05:20:27;;;;;;;10.83;2.17;;;6.00;99.90;;;;;;5114574;28;20233;-87
2022/11/06 05:22:57;;;;;;;11.07;1.97;;;6.00;99.90;;;;;;5099025;28;20206;-87
2022/11/06 05:25:30;;;;;;;6.80;1.83;;;6.10;99.90;;;;;;5073881;28;20217;-87
2022/11/06 05:28:03;;;;;;;6.17;1.53;;;6.10;99.90;;;;;;5104668;28;20226;-87
2022/11/06 05:30:35;;;;;;;5.77;1.30;;;6.10;99.90;;;;;;5114846;28;20232;-86
2022/11/06 05:33:06;;;;;;;12.47;2.33;;;6.10;99.90;;;;;;5112455;28;20206;-86
2022/11/06 05:35:40;;;;;;;8.03;1.83;;;6.10;99.90;;;;;;5113025;28;20289;-87
2022/11/06 05:38:11;;;;;;;7.53;1.70;;;6.10;99.90;;;;;;5114740;28;20667;-87
2022/11/06 05:40:43;;;;;;;10.80;1.87;;;6.10;99.90;;;;;;5111641;28;20211;-88
2022/11/06 05:43:16;;;;;;;8.17;1.90;;;6.10;99.90;;;;;;5111918;28;20285;-87
2022/11/06 05:45:47;;;;;;;8.60;1.40;;;6.10;99.90;;;;;;5112997;28;20234;-87
2022/11/06 05:48:18;;;;;;;8.27;2.27;;;6.10;99.90;;;;;;5109469;28;20317;-87
2022/11/06 05:50:51;;;;;;;13.03;2.47;;;6.10;99.90;;;;;;5107633;28;20221;-88
2022/11/06 05:53:23;;;;;;;8.43;2.00;;;6.10;99.90;;;;;;5115480;28;20230;-87
2022/11/06 05:55:55;;;;;;;8.13;2.57;;;6.10;99.90;;;;;;5114871;28;20212;-87
2022/11/06 05:58:27;;;;;;;11.40;2.07;;;6.10;99.90;;;;;;5109079;28;20219;-87
2022/11/06 06:00:59;;;;;;;9.87;1.77;;;6.10;99.90;;;;;;5094160;28;20233;-85
2022/11/06 06:03:31;;;;;;;5.40;1.60;;;6.10;99.90;;;;;;5102192;28;20243;-86
2022/11/06 06:06:05;;;;;;;10.07;2.03;;;6.10;99.90;;;;;;5113678;28;20286;-87
2022/11/06 06:08:36;;;;;;;5.80;1.87;;;6.10;99.90;;;;;;5117112;28;20399;-87
2022/11/06 06:11:09;;;;;;;9.23;1.97;;;6.10;99.90;;;;;;5117809;28;20206;-88
2022/11/06 06:13:40;;;;;;;7.37;1.90;;;6.20;99.90;;;;;;5117385;28;20237;-87
2022/11/06 06:16:11;;;;;;;7.50;1.77;;;6.10;99.90;;;;;;5118758;28;20218;-86
2022/11/06 06:18:43;;;;;;;10.27;1.70;;;6.10;99.90;;;;;;5132443;28;20198;-87
2022/11/06 06:21:16;;;;;;;6.03;1.60;;;6.20;99.90;;;;;;5136969;28;20194;-87
2022/11/06 06:23:48;;;;;;;7.20;1.60;;;6.20;99.90;;;;;;5128585;28;20202;-86
2022/11/06 06:26:19;;;;;;;6.03;1.90;;;6.20;99.90;;;;;;5117784;28;20205;-87
2022/11/06 06:28:51;;;;;;;9.63;2.00;;;6.10;99.90;;;;;;5117495;28;20222;-87
2022/11/06 06:31:22;;;;;;;8.13;1.53;;;6.10;99.90;;;;;;5112855;28;20286;-87
2022/11/06 06:33:59;;;;;;;8.03;1.80;;;6.20;99.90;;;;;;5108191;28;20259;-87
2022/11/06 06:36:33;;;;;;;4.67;1.60;;;6.20;99.90;;;;;;5116611;28;20213;-86
2022/11/06 06:39:04;;;;;;;7.23;1.67;;;6.20;99.90;;;;;;5116840;28;20309;-86
2022/11/06 06:41:37;;;;;;;9.03;1.63;;;6.20;99.90;;;;;;5117521;28;20218;-87
2022/11/06 06:44:08;;;;;;;10.03;2.13;;;6.20;99.90;;;;;;5115585;28;20289;-86
2022/11/06 06:46:40;;;;;;;8.27;1.93;;;6.20;99.90;;;;;;5116145;28;20199;-86
2022/11/06 06:49:12;;;;;;;7.97;1.60;;;6.20;99.90;;;;;;5118264;28;20244;-85
2022/11/06 06:51:45;;;;;;;7.77;2.00;;;6.20;99.90;;;;;;4765134;28;10000543;-86
2022/11/06 06:54:18;;;;;;;6.27;1.57;;;6.20;99.90;;;;;;5104526;28;20233;-87
2022/11/06 06:56:49;;;;;;;3.97;1.20;;;6.30;99.90;;;;;;5113440;28;20488;-87
2022/11/06 06:59:20;;;;;;;7.43;1.43;;;6.20;99.90;;;;;;5102109;28;20692;-86
2022/11/06 07:01:52;;;;;;;10.53;1.67;;;6.20;99.90;;;;;;5102057;28;20194;-88
2022/11/06 07:04:25;;;;;;;3.70;1.30;;;6.20;99.90;;;;;;5115627;28;20217;-86
2022/11/06 07:06:59;;;;;;;9.27;1.87;;;6.20;99.90;;;;;;5115649;28;20622;-85
2022/11/06 07:09:32;;;;;;;7.73;1.90;;;6.30;99.90;;;;;;5114742;28;20684;-86
2022/11/06 07:12:03;;;;;;;10.03;1.70;;;6.20;99.90;;;;;;5096060;28;21185;-85
2022/11/06 07:14:35;;;;;;;4.57;1.43;;;6.20;99.90;;;;;;5110356;28;20209;-87
2022/11/06 07:17:06;;;;;;;8.97;1.70;;;6.20;99.90;;;;;;5129148;27;20494;-87
2022/11/06 07:19:37;;;;;;;4.17;1.53;;;6.20;99.90;;;;;;5114236;28;20297;-87
2022/11/06 07:22:11;;;;;;;7.83;1.30;;;6.20;99.90;;;;;;5115675;27;20670;-87
2022/11/06 07:24:44;;;;;;;6.07;1.50;;;6.20;99.90;;;;;;5112648;27;20233;-86
2022/11/06 07:27:15;;;;;;;5.73;1.40;;;6.20;99.90;;;;;;5108934;28;20290;-86
2022/11/06 07:29:47;;;;;;;8.67;1.17;;;6.20;99.90;;;;;;5105229;28;20230;-87
2022/11/06 07:32:18;;;;;;;9.23;1.00;;;6.20;99.90;;;;;;5099154;28;20233;-87
2022/11/06 07:34:49;;;;;;;3.90;1.13;;;6.20;99.90;;;;;;5103736;28;20761;-87
2022/11/06 07:37:27;;;;;;;5.53;1.40;;;6.20;99.90;;;;;;5112494;28;20687;-87
2022/11/06 07:40:00;;;;;;;8.83;1.23;;;6.20;99.90;;;;;;5102342;28;20802;-86
2022/11/06 07:42:31;;;;;;;4.37;1.20;;;6.30;99.90;;;;;;5094471;28;20750;-86
2022/11/06 07:45:03;;;;;;;4.37;1.23;;;6.30;99.90;;;;;;5103181;28;20247;-86
2022/11/06 07:47:35;;;;;;;5.90;1.07;;;6.40;99.90;;;;;;5093825;28;20301;-87
2022/11/06 07:50:10;;;;;;;6.77;1.50;;;6.30;99.90;;;;;;5093991;28;20590;-88
2022/11/06 07:52:45;;;;;;;6.13;1.13;;;6.40;99.90;;;;;;5103936;28;20223;-86
2022/11/06 07:55:17;;;;;;;4.53;0.93;;;6.30;99.90;;;;;;5114786;28;20483;-87
2022/11/06 07:57:48;;;;;;;4.13;0.90;;;6.30;99.90;;;;;;5113729;28;20242;-87
2022/11/06 08:00:19;;;;;;;4.87;1.10;;;6.10;99.90;;;;;;5114711;28;20617;-85
2022/11/06 08:02:54;;;;;;;3.37;0.90;;;6.10;99.90;;;;;;5119505;28;20645;-86
2022/11/06 08:05:25;;;;;;;5.90;1.37;;;6.10;99.90;;;;;;5129114;27;20201;-85
2022/11/06 08:08:01;;;;;;;7.23;1.40;;;6.10;99.90;;;;;;5115777;27;20213;-86
2022/11/06 08:10:36;;;;;;;5.83;1.03;;;6.00;99.90;;;;;;5094343;28;20202;-85
2022/11/06 08:13:10;;;;;;;3.63;1.10;;;6.00;99.90;;;;;;5093887;28;20293;-87
2022/11/06 08:15:44;;;;;;;6.00;1.30;;;5.90;99.90;;;;;;5109538;28;20258;-85
2022/11/06 08:18:16;;;;;;;5.33;1.10;;;5.90;99.90;;;;;;5116285;28;20293;-85
2022/11/06 08:20:47;;;;;;;4.13;1.43;;;6.00;99.90;;;;;;5118562;28;20204;-85
2022/11/06 08:23:23;;;;;;;5.40;1.10;;;5.90;99.90;;;;;;5096980;28;20198;-85
2022/11/06 08:25:57;;;;;;;3.97;1.37;;;5.90;99.90;;;;;;5116769;28;20626;-86
2022/11/06 08:28:29;;;;;;;6.27;1.33;;;5.90;99.90;;;;;;5117200;28;20606;-86
2022/11/06 08:31:04;;;;;;;5.40;1.03;;;5.80;99.90;;;;;;5106028;28;20294;-86
2022/11/06 08:33:36;;;;;;;4.33;1.00;;;5.80;99.90;;;;;;5112150;28;20251;-86
2022/11/06 08:36:11;;;;;;;3.87;1.00;;;5.80;99.90;;;;;;5117162;28;20206;-86
2022/11/06 08:38:48;;;;;;;6.40;1.10;;;5.70;99.90;;;;;;5115413;28;20300;-86
2022/11/06 08:41:19;;;;;;;2.53;1.00;;;5.70;99.90;;;;;;5098571;28;20262;-87
2022/11/06 08:43:53;;;;;;;8.53;1.73;;;5.70;99.90;;;;;;5113757;28;20225;-86
2022/11/06 08:46:25;;;;;;;5.90;1.00;;;5.70;99.90;;;;;;5117290;28;20204;-88
2022/11/06 08:48:57;;;;;;;2.87;0.93;;;5.70;99.90;;;;;;5117932;28;20214;-87
2022/11/06 08:51:28;;;;;;;5.57;1.20;;;5.80;99.90;;;;;;5114043;28;20230;-87
2022/11/06 08:54:05;;;;;;;4.30;0.80;;;5.70;99.90;;;;;;5114216;28;20651;-87
2022/11/06 08:56:37;;;;;;;3.00;0.90;;;5.60;99.90;;;;;;5079095;28;20218;-87
2022/11/06 08:59:08;;;;;;;3.33;1.10;;;5.60;99.90;;;;;;5093835;28;20209;-87
2022/11/06 09:01:39;;;;;;;4.23;0.97;;;5.70;99.90;;;;;;5093607;28;20291;-87
2022/11/06 09:04:11;;;;;;;4.67;1.10;;;5.70;99.90;;;;;;5103701;28;20206;-87
2022/11/06 09:06:42;;;;;;;3.37;0.73;;;5.60;99.90;;;;;;5114299;28;20292;-87
2022/11/06 09:09:18;;;;;;;3.10;0.80;;;5.70;99.90;;;;;;5114355;28;20660;-87
2022/11/06 09:11:49;;;;;;;5.23;1.00;;;5.50;99.90;;;;;;5116449;28;20198;-86
2022/11/06 09:14:23;;;;;;;6.77;1.07;;;5.40;99.90;;;;;;5113579;28;20289;-87
2022/11/06 09:16:54;;;;;;;6.83;1.00;;;5.40;99.90;;;;;;5114254;28;20654;-87
2022/11/06 09:19:25;;;;;;;4.00;0.80;;;5.50;99.90;;;;;;5113581;28;20289;-87
2022/11/06 09:21:57;;;;;;;3.23;0.83;;;5.50;99.90;;;;;;5113435;28;20707;-87
2022/11/06 09:24:30;;;;;;;4.03;1.10;;;5.60;99.90;;;;;;5113623;28;20277;-86
2022/11/06 09:27:22;;;;;;;1.87;0.93;;;5.60;99.90;;;;;;5099327;28;20205;-86
2022/11/06 09:29:53;;;;;;;3.70;0.83;;;5.60;99.90;;;;;;5103833;28;20234;-84
2022/11/06 09:32:24;;;;;;;3.53;0.80;;;5.60;99.90;;;;;;5120367;28;20265;-84
2022/11/06 09:34:59;;;;;;;3.03;0.93;;;5.60;99.90;;;;;;5122295;28;20222;-86
2022/11/06 09:37:30;;;;;;;5.70;1.33;;;5.60;99.90;;;;;;5116562;28;20296;-86
2022/11/06 09:40:06;;;;;;;4.20;0.80;;;5.50;99.90;;;;;;5116118;28;20615;-86
2022/11/06 09:42:50;;;;;;;3.93;0.80;;;5.50;99.90;;;;;;5117389;28;20281;-86
2022/11/06 09:45:30;;;;;;;3.53;0.90;;;5.40;99.90;;;;;;5114881;28;20230;-86
2022/11/06 09:48:07;;;;;;;7.10;1.00;;;5.40;99.90;;;;;;5113645;28;20286;-87
2022/11/06 09:50:42;;;;;;;4.20;1.00;;;5.30;99.90;;;;;;5095288;28;20259;-86
2022/11/06 09:53:18;;;;;;;5.80;1.10;;;5.30;99.90;;;;;;5111847;28;20650;-87
2022/11/06 09:55:53;;;;;;;4.57;0.87;;;5.30;99.90;;;;;;5115441;28;20218;-87
2022/11/06 09:58:32;;;;;;;5.07;1.00;;;5.30;99.90;;;;;;5112618;28;20350;-84
2022/11/06 10:01:20;;;;;;;4.30;0.90;;;5.30;99.90;;;;;;5112477;28;20814;-85
2022/11/06 10:03:59;;;;;;;2.93;0.70;;;5.30;99.90;;;;;;5113739;28;20687;-85
2022/11/06 10:06:31;;;;;;;4.53;0.73;;;5.30;99.90;;;;;;5112187;28;20226;-90
2022/11/06 10:09:04;;;;;;;4.30;1.07;;;5.30;99.90;;;;;;5112255;28;20612;-87
2022/11/06 10:11:50;;;;;;;2.80;0.57;;;5.40;99.90;;;;;;5112522;28;20218;-86
2022/11/06 10:14:37;;;;;;;5.27;0.97;;;5.30;99.90;;;;;;5112195;28;20253;-87
2022/11/06 10:17:19;;;;;;;3.97;1.00;;;5.30;99.90;;;;;;5112485;28;20820;-86
2022/11/06 10:19:56;;;;;;;4.20;0.73;;;5.20;99.90;;;;;;5114498;28;20206;-87
2022/11/06 10:22:33;;;;;;;1.73;0.60;;;5.10;99.90;;;;;;5112094;28;20237;-87
2022/11/06 10:25:20;;;;;;;1.27;0.40;;;5.20;99.90;;;;;;5115156;28;20242;-87
2022/11/06 10:28:02;;;;;;;1.40;0.40;;;5.10;99.90;;;;;;5115312;28;20216;-87
2022/11/06 10:30:41;;;;;;;1.43;0.40;;;5.00;99.90;;;;;;5115110;28;20690;-87
2022/11/06 10:33:27;;;;;;;1.53;0.53;;;5.00;99.90;;;;;;5094917;28;20652;-87
2022/11/06 10:36:03;;;;;;;2.73;0.57;;;5.00;99.90;;;;;;5112819;28;20209;-86
2022/11/06 10:38:42;;;;;;;1.10;0.53;;;5.00;99.90;;;;;;5113271;28;20289;-88
2022/11/06 10:41:19;;;;;;;5.37;0.80;;;5.00;99.90;;;;;;5113103;28;20225;-87
2022/11/06 10:43:58;;;;;;;2.33;0.90;;;5.10;99.90;;;;;;5118024;28;20216;-85
2022/11/06 10:46:36;;;;;;;2.50;0.40;;;5.00;99.90;;;;;;5123884;28;20255;-86
2022/11/06 10:49:20;;;;;;;3.63;0.53;;;5.00;99.90;;;;;;5112353;28;20224;-86
2022/11/06 10:52:06;;;;;;;2.40;0.70;;;5.10;99.90;;;;;;5111983;28;20940;-88
2022/11/06 10:54:49;;;;;;;3.07;0.60;;;5.10;99.90;;;;;;5111954;28;20288;-87
2022/11/06 10:57:29;;;;;;;2.67;0.90;;;5.10;99.90;;;;;;5115936;28;20306;-86
2022/11/06 11:00:03;;;;;;;2.73;0.57;;;5.10;99.90;;;;;;5104993;28;20687;-86
2022/11/06 11:02:40;;;;;;;1.83;0.40;;;5.10;99.90;;;;;;5094198;28;20215;-86
2022/11/06 11:05:14;;;;;;;4.20;0.57;;;5.10;99.90;;;;;;5094858;28;20252;-86
2022/11/06 11:07:47;;;;;;;1.50;0.50;;;5.20;99.90;;;;;;5100000;28;20249;-87
2022/11/06 11:10:30;;;;;;;1.73;0.40;;;5.10;99.90;;;;;;5097721;28;20592;-86
2022/11/06 11:13:03;;;;;;;2.43;0.40;;;5.10;99.90;;;;;;5114009;28;20214;-86
2022/11/06 11:15:45;;;;;;;2.20;0.33;;;5.10;99.90;;;;;;5114858;28;20662;-87
2022/11/06 11:18:29;;;;;;;1.47;0.57;;;5.10;99.90;;;;;;5115617;28;20241;-87
2022/11/06 11:21:16;;;;;;;1.70;0.40;;;5.10;99.90;;;;;;5115546;28;20205;-86
2022/11/06 11:24:05;;;;;;;2.63;0.40;;;5.00;99.90;;;;;;5114753;28;20631;-87
2022/11/06 11:26:40;;;;;;;3.23;0.60;;;5.10;99.90;;;;;;5115768;28;20233;-87
2022/11/06 11:29:18;;;;;;;1.37;0.30;;;5.00;99.90;;;;;;5115897;28;20289;-88
2022/11/06 11:31:54;;;;;;;1.10;0.30;;;5.00;99.90;;;;;;5115079;28;20258;-86
2022/11/06 11:34:28;;;;;;;1.83;0.30;;;5.00;99.90;;;;;;5115290;28;20627;-87
2022/11/06 11:37:01;;;;;;;2.03;0.50;;;5.00;99.90;;;;;;5114733;28;20285;-87
2022/11/06 11:39:35;;;;;;;1.50;0.33;;;5.00;99.90;;;;;;5115044;28;20237;-87
2022/11/06 11:42:26;;;;;;;0.83;0.37;;;5.00;99.90;;;;;;5114181;28;20224;-86
2022/11/06 11:45:18;;;;;;;0.73;0.40;;;5.00;99.90;;;;;;5114767;28;20293;-87
2022/11/06 11:47:53;;;;;;;1.90;0.30;;;5.10;99.90;;;;;;5114831;28;20208;-88
2022/11/06 11:50:32;;;;;;;2.20;0.40;;;5.00;99.90;;;;;;5114762;28;20311;-86
2022/11/06 11:53:12;;;;;;;1.10;0.50;;;4.90;99.90;;;;;;5113933;28;20210;-87
2022/11/06 11:55:45;;;;;;;2.00;0.20;;;5.00;99.90;;;;;;5114413;28;20210;-86
2022/11/06 11:58:24;;;;;;;0.63;0.20;;;5.00;99.90;;;;;;5114794;28;20319;-87
2022/11/06 12:01:00;;;;;;;0.50;0.40;;;5.00;99.90;;;;;;5114521;28;20194;-88
2022/11/06 12:03:35;;;;;;;1.43;0.40;;;5.00;99.90;;;;;;5115906;28;20197;-86
2022/11/06 12:06:09;;;;;;;2.13;0.40;;;5.00;99.90;;;;;;5116653;28;20220;-88
2022/11/06 12:08:53;;;;;;;1.17;0.50;;;5.00;99.90;;;;;;5107335;28;20294;-86
2022/11/06 12:11:26;;;;;;;1.40;0.63;;;5.00;99.90;;;;;;5096943;28;20228;-88
2022/11/06 12:14:26;;;;;;;1.30;0.37;;;5.00;99.90;;;;;;5112178;28;20295;-88
2022/11/06 12:17:02;;;;;;;1.33;0.33;;;5.00;99.90;;;;;;5117580;28;20234;-87
2022/11/06 12:19:40;;;;;;;1.93;0.50;;;5.00;99.90;;;;;;5113313;28;20323;-88
2022/11/06 12:22:19;;;;;;;1.67;0.40;;;5.00;99.90;;;;;;5096724;28;20261;-86
2022/11/06 12:24:55;;;;;;;0.93;0.30;;;5.00;99.90;;;;;;5113748;28;20666;-87
2022/11/06 12:27:29;;;;;;;1.00;0.50;;;5.10;99.90;;;;;;5113499;28;20226;-87
2022/11/06 12:30:06;;;;;;;0.57;0.30;;;5.00;99.90;;;;;;5112908;28;20236;-85
2022/11/06 12:32:46;;;;;;;2.23;0.40;;;5.10;99.90;;;;;;5115786;28;20664;-87
2022/11/06 12:35:26;;;;;;;1.90;0.50;;;5.00;99.90;;;;;;5115911;28;20749;-86
2022/11/06 12:38:12;;;;;;;0.60;0.30;;;5.00;99.90;;;;;;5114094;28;20234;-87
2022/11/06 12:40:49;;;;;;;1.80;0.30;;;5.00;99.90;;;;;;5093894;28;20214;-86
2022/11/06 12:43:28;;;;;;;1.23;0.40;;;5.00;99.90;;;;;;5093295;28;20203;-86
2022/11/06 12:46:24;;;;;;;3.00;0.57;;;4.90;99.90;;;;;;5094178;28;20242;-86
2022/11/06 12:49:19;;;;;;;3.80;0.50;;;4.90;99.90;;;;;;5092425;28;20207;-87
2022/11/06 12:52:02;;;;;;;1.33;0.57;;;4.90;99.90;;;;;;5093465;28;20250;-87
2022/11/06 12:54:47;;;;;;;4.17;0.63;;;4.90;99.90;;;;;;5097958;28;20214;-85
2022/11/06 12:57:29;;;;;;;6.13;0.40;;;4.90;99.90;;;;;;5101282;28;20199;-87
2022/11/06 13:00:10;;;;;;;0.40;0.30;;;4.90;99.90;;;;;;5116769;28;20240;-86
2022/11/06 13:03:12;;;;;;;0.50;0.30;;;4.90;99.90;;;;;;5113735;28;20226;-86
2022/11/06 13:05:54;;;;;;;0.40;0.30;;;4.80;99.90;;;;;;5106380;28;20203;-87
2022/11/06 13:08:34;;;;;;;0.57;0.30;;;4.80;99.90;;;;;;5105567;28;20854;-88
2022/11/06 13:11:22;;;;;;;0.97;0.40;;;4.80;99.90;;;;;;5113348;28;20686;-87
2022/11/06 13:14:12;;;;;;;2.83;0.40;;;4.80;99.90;;;;;;5094129;28;20220;-86
2022/11/06 13:16:54;;;;;;;0.60;0.33;;;4.70;99.90;;;;;;5097597;28;20233;-87
2022/11/06 13:19:30;;;;;;;0.30;0.30;;;4.70;99.90;;;;;;5112654;28;20237;-86
2022/11/06 13:22:12;;;;;;;0.87;0.50;;;4.70;99.90;;;;;;5112133;28;20212;-88
2022/11/06 13:24:51;;;;;;;2.40;0.20;;;4.70;99.90;;;;;;5113189;28;20629;-87
2022/11/06 13:27:30;;;;;;;1.13;0.37;;;4.50;99.90;;;;;;5114040;28;20232;-87
2022/11/06 13:30:06;;;;;;;0.77;0.40;;;4.60;99.90;;;;;;5115037;28;20286;-87
2022/11/06 13:32:39;;;;;;;0.63;0.30;;;4.60;99.90;;;;;;5114297;28;20225;-87
2022/11/06 13:35:16;;;;;;;1.43;0.50;;;4.60;99.90;;;;;;5113358;28;20289;-87
2022/11/06 13:37:52;;;;;;;1.40;0.40;;;4.60;99.90;;;;;;5112933;28;20233;-87
2022/11/06 13:40:34;;;;;;;0.67;0.20;;;4.60;99.90;;;;;;5115997;28;20237;-87
2022/11/06 13:43:12;;;;;;;1.60;0.30;;;4.60;99.90;;;;;;5112130;28;20279;-86
2022/11/06 13:45:50;;;;;;;0.30;0.30;;;4.50;99.90;;;;;;5113133;28;20208;-87
2022/11/06 13:48:35;;;;;;;0.57;0.30;;;4.50;99.90;;;;;;5113604;28;20578;-87
2022/11/06 13:51:14;;;;;;;0.67;0.30;;;4.60;99.90;;;;;;5112873;28;20308;-87
2022/11/06 13:53:51;;;;;;;0.30;0.20;;;4.50;99.90;;;;;;5112008;28;20240;-87